Time;durP1;ratioP1;P1;durP2;ratioP2;P2;SDS_P1;SDS_P2;PMS_P1;PMS_P2;Temp;Humidity;BMP_temperature;BMP_pressure;BME280_temperature;BME280_humidity;BME280_pressure;Samples;Min_cycle;Max_cycle;Signal;HPM_P1;HPM_P2
2022/05/08 00:02:54;;;;;;;17.57;9.30;;;;;;;-141.13;100.00;65498.22;10377398;28;20236;-69
2022/05/08 00:07:58;;;;;;;16.97;8.23;;;;;;;-141.13;100.00;65498.22;10380155;28;20555;-70
2022/05/08 00:13:01;;;;;;;17.00;8.73;;;;;;;-141.13;100.00;65498.22;10380709;28;20232;-70
2022/05/08 00:18:06;;;;;;;14.90;9.30;;;;;;;-141.13;100.00;65498.22;10380066;28;20377;-71
2022/05/08 00:23:09;;;;;;;17.23;8.50;;;;;;;-141.13;100.00;65498.22;10379859;28;20291;-71
2022/05/08 00:28:13;;;;;;;14.47;8.50;;;;;;;-141.13;100.00;65498.22;10379374;28;20238;-68
2022/05/08 00:33:17;;;;;;;16.80;8.80;;;;;;;-141.13;100.00;65498.22;10379463;28;20222;-71
2022/05/08 00:38:21;;;;;;;15.53;8.67;;;;;;;-141.13;100.00;65498.22;10379843;28;20218;-72
2022/05/08 00:43:25;;;;;;;15.47;8.60;;;;;;;-141.13;100.00;65498.22;10379197;28;20230;-70
2022/05/08 00:48:30;;;;;;;16.37;8.67;;;;;;;-141.13;100.00;65498.22;10379429;28;20224;-68
2022/05/08 00:53:36;;;;;;;12.50;8.10;;;;;;;-141.13;100.00;65498.22;10378750;28;20256;-71
2022/05/08 00:58:41;;;;;;;14.30;8.30;;;;;;;-141.13;100.00;65498.22;10378640;28;20228;-69
2022/05/08 01:03:46;;;;;;;14.03;7.90;;;;;;;-141.13;100.00;65498.22;10378394;28;20222;-69
2022/05/08 01:08:51;;;;;;;14.23;8.37;;;;;;;-141.13;100.00;65498.22;10378962;28;20214;-69
2022/05/08 01:13:54;;;;;;;15.27;7.97;;;;;;;-141.13;100.00;65498.22;10377919;28;20252;-70
2022/05/08 01:18:59;;;;;;;15.90;8.07;;;;;;;-141.13;100.00;65498.22;10377882;28;20210;-68
2022/05/08 01:24:04;;;;;;;14.47;7.87;;;;;;;-141.13;100.00;65498.22;10377665;28;20727;-71
2022/05/08 01:29:08;;;;;;;13.93;7.67;;;;;;;-141.13;100.00;65498.22;10377006;28;20233;-70
2022/05/08 01:34:11;;;;;;;13.17;7.13;;;;;;;-141.13;100.00;65498.22;10378208;28;20658;-66
2022/05/08 01:39:15;;;;;;;12.97;6.90;;;;;;;-141.13;100.00;65498.22;10377320;28;20674;-66
2022/05/08 01:44:22;;;;;;;14.67;6.73;;;;;;;-141.13;100.00;65498.22;10377504;28;20240;-64
2022/05/08 01:49:25;;;;;;;14.40;7.43;;;;;;;-141.13;100.00;65498.22;10377306;28;20697;-66
2022/05/08 01:54:30;;;;;;;15.13;9.10;;;;;;;-141.13;100.00;65498.22;10377412;28;20249;-66
2022/05/08 01:59:33;;;;;;;15.27;9.33;;;;;;;-141.13;100.00;65498.22;10377247;28;20296;-64
2022/05/08 02:04:37;;;;;;;17.37;9.20;;;;;;;-141.13;100.00;65498.22;10377125;28;20252;-68
2022/05/08 02:09:42;;;;;;;14.87;8.10;;;;;;;-141.13;100.00;65498.22;10376836;28;20590;-70
2022/05/08 02:14:47;;;;;;;15.67;8.10;;;;;;;-141.13;100.00;65498.22;10377233;28;20225;-68
2022/05/08 02:19:51;;;;;;;13.83;8.07;;;;;;;-141.13;100.00;65498.22;10376486;28;20228;-70
2022/05/08 02:24:55;;;;;;;13.53;8.47;;;;;;;-141.13;100.00;65498.22;10375169;28;20575;-72
2022/05/08 02:29:58;;;;;;;15.50;8.20;;;;;;;-141.13;100.00;65498.22;10373538;28;20655;-66
2022/05/08 02:35:03;;;;;;;13.43;8.17;;;;;;;-141.13;100.00;65498.22;10374413;28;20300;-70
2022/05/08 02:40:09;;;;;;;15.60;8.97;;;;;;;-141.13;100.00;65498.22;10376297;28;20214;-69
2022/05/08 02:45:13;;;;;;;13.87;8.10;;;;;;;-141.13;100.00;65498.22;10383769;28;20222;-67
2022/05/08 02:50:17;;;;;;;16.70;8.90;;;;;;;-141.13;100.00;65498.22;10384854;28;20228;-70
2022/05/08 03:00:43;;;;;;;17.20;9.83;;;;;;;-141.13;100.00;65498.22;10383049;28;20305;-69
2022/05/08 03:05:48;;;;;;;15.73;9.67;;;;;;;-141.13;100.00;65498.22;10382871;28;20226;-70
2022/05/08 03:16:13;;;;;;;15.67;9.97;;;;;;;-141.13;100.00;65498.22;10383609;28;20222;-70
2022/05/08 03:21:16;;;;;;;16.33;9.20;;;;;;;-141.13;100.00;65498.22;10382680;28;20224;-71
2022/05/08 03:26:21;;;;;;;14.60;7.90;;;;;;;-141.13;100.00;65498.22;10382124;28;20237;-68
2022/05/08 03:31:24;;;;;;;15.63;9.07;;;;;;;-141.13;100.00;65498.22;10381968;28;20252;-70
2022/05/08 03:36:28;;;;;;;13.43;9.37;;;;;;;-141.13;100.00;65498.22;10381812;28;20236;-70
2022/05/08 03:41:32;;;;;;;14.40;9.30;;;;;;;-141.13;100.00;65498.22;10382175;28;20232;-69
2022/05/08 03:46:36;;;;;;;14.53;8.30;;;;;;;-141.13;100.00;65498.22;10382243;28;20218;-69
2022/05/08 03:51:39;;;;;;;17.57;9.53;;;;;;;-141.13;100.00;65498.22;10381081;28;20244;-70
2022/05/08 03:56:44;;;;;;;16.10;9.97;;;;;;;-141.13;100.00;65498.22;10380203;28;20554;-71
2022/05/08 04:01:47;;;;;;;15.53;9.70;;;;;;;-141.13;100.00;65498.22;10380662;28;20222;-68
2022/05/08 04:06:51;;;;;;;15.47;9.73;;;;;;;-141.13;100.00;65498.22;10380390;28;20230;-69
2022/05/08 04:11:55;;;;;;;16.47;10.10;;;;;;;-141.13;100.00;65498.22;10380425;28;20214;-66
2022/05/08 04:17:00;;;;;;;15.97;9.47;;;;;;;-141.13;100.00;65498.22;10380329;28;20222;-71
2022/05/08 04:27:25;;;;;;;15.93;9.17;;;;;;;-141.13;100.00;65498.22;10379836;28;20682;-70
2022/05/08 04:32:29;;;;;;;16.43;9.20;;;;;;;-141.13;100.00;65498.22;10380663;28;20240;-70
2022/05/08 04:37:32;;;;;;;13.47;9.63;;;;;;;-141.13;100.00;65498.22;10380146;28;20222;-68
2022/05/08 04:42:36;;;;;;;16.20;8.73;;;;;;;-141.13;100.00;65498.22;10379317;28;20230;-68
2022/05/08 04:47:40;;;;;;;17.00;9.83;;;;;;;-141.13;100.00;65498.22;10379129;28;20597;-72
2022/05/08 04:52:43;;;;;;;17.50;9.23;;;;;;;-141.13;100.00;65498.22;10379052;28;20279;-67
2022/05/08 04:57:48;;;;;;;18.00;9.13;;;;;;;-141.13;100.00;65498.22;10378855;28;20218;-69
2022/05/08 05:02:51;;;;;;;11.57;7.77;;;;;;;-141.13;100.00;65498.22;10378491;28;20234;-70
2022/05/08 05:07:54;;;;;;;16.77;8.53;;;;;;;-141.13;100.00;65498.22;10378480;28;20190;-68
2022/05/08 05:12:59;;;;;;;12.67;7.90;;;;;;;-141.13;100.00;65498.22;10378293;28;20202;-69
2022/05/08 05:18:02;;;;;;;16.20;8.57;;;;;;;-141.13;100.00;65498.22;10378555;28;20193;-66
2022/05/08 05:23:06;;;;;;;15.60;8.83;;;;;;;-141.13;100.00;65498.22;10377741;28;20214;-68
2022/05/08 05:28:11;;;;;;;15.50;8.47;;;;;;;-141.13;100.00;65498.22;10378149;28;20225;-70
2022/05/08 05:33:16;;;;;;;15.57;8.53;;;;;;;-141.13;100.00;65498.22;10377441;28;20586;-70
2022/05/08 05:38:19;;;;;;;14.93;7.80;;;;;;;-141.13;100.00;65498.22;10377618;28;20280;-69
2022/05/08 05:43:24;;;;;;;16.10;8.53;;;;;;;-141.13;100.00;65498.22;10377377;28;20598;-67
2022/05/08 05:48:27;;;;;;;16.73;9.53;;;;;;;-141.13;100.00;65498.22;10377084;28;20202;-70
2022/05/08 05:53:31;;;;;;;16.00;8.57;;;;;;;-141.13;100.00;65498.22;10377253;28;20204;-70
2022/05/08 05:58:35;;;;;;;14.87;9.10;;;;;;;-141.13;100.00;65498.22;10377217;28;20513;-68
2022/05/08 06:03:39;;;;;;;18.30;9.10;;;;;;;-141.13;100.00;65498.22;10376834;28;20217;-70
2022/05/08 06:08:42;;;;;;;33.57;19.83;;;;;;;-141.13;100.00;65498.22;10376889;28;20273;-70
2022/05/08 06:13:46;;;;;;;17.63;8.73;;;;;;;-141.13;100.00;65498.22;10377022;28;20209;-70
2022/05/08 06:18:50;;;;;;;14.60;7.30;;;;;;;-141.13;100.00;65498.22;10382771;28;20190;-72
2022/05/08 06:23:54;;;;;;;9.57;6.13;;;;;;;-141.13;100.00;65498.22;10384516;28;20225;-73
2022/05/08 06:28:59;;;;;;;11.60;6.57;;;;;;;-141.13;100.00;65498.22;10384330;28;20228;-69
2022/05/08 06:34:02;;;;;;;9.00;5.30;;;;;;;-141.13;100.00;65498.22;10385267;28;20218;-71
2022/05/08 06:39:06;;;;;;;8.57;4.43;;;;;;;-141.13;100.00;65498.22;10385092;28;20218;-71
2022/05/08 06:44:11;;;;;;;11.03;6.27;;;;;;;-141.13;100.00;65498.22;10383852;28;20639;-68
2022/05/08 06:49:14;;;;;;;9.73;6.30;;;;;;;-141.13;100.00;65498.22;10383508;28;20226;-67
2022/05/08 06:54:17;;;;;;;9.03;4.17;;;;;;;-141.13;100.00;65498.22;10383684;28;20302;-66
2022/05/08 07:04:43;;;;;;;8.60;4.57;;;;;;;-141.13;100.00;65498.22;10383737;28;20248;-70
2022/05/08 07:09:46;;;;;;;7.47;4.73;;;;;;;-141.13;100.00;65498.22;10404101;28;20210;-69
2022/05/08 07:14:52;;;;;;;9.13;5.07;;;;;;;-141.13;100.00;65498.22;10423997;28;20223;-69
2022/05/08 07:19:57;;;;;;;8.07;4.53;;;;;;;-141.13;100.00;65498.22;10406159;28;20322;-70
2022/05/08 07:25:01;;;;;;;8.60;4.80;;;;;;;-141.13;100.00;65498.22;10423036;28;20240;-69
2022/05/08 07:30:06;;;;;;;8.17;4.57;;;;;;;-141.13;100.00;65498.22;10421770;28;20253;-70
2022/05/08 07:40:32;;;;;;;8.50;4.43;;;;;;;-141.13;100.00;65498.22;10423355;28;20229;-68
2022/05/08 07:45:37;;;;;;;8.77;4.33;;;;;;;-141.13;100.00;65498.22;10423030;28;20228;-69
2022/05/08 07:50:40;;;;;;;8.13;4.37;;;;;;;-141.13;100.00;65498.22;10405696;28;20714;-69
2022/05/08 07:55:43;;;;;;;8.20;4.47;;;;;;;-141.13;100.00;65498.22;10422299;28;20674;-68
2022/05/08 08:00:49;;;;;;;9.63;4.43;;;;;;;-141.13;100.00;65498.22;10422108;28;20313;-67
2022/05/08 08:05:55;;;;;;;9.93;4.63;;;;;;;-141.13;100.00;65498.22;10421853;28;20256;-70
2022/05/08 08:11:14;;;;;;;10.10;4.47;;;;;;;-141.13;100.00;65498.22;10421616;28;20249;-69
2022/05/08 08:16:19;;;;;;;15.80;5.23;;;;;;;-141.13;100.00;65498.22;10421357;28;20213;-69
2022/05/08 08:21:22;;;;;;;7.33;4.37;;;;;;;-141.13;100.00;65498.22;10421047;28;20224;-71
2022/05/08 08:26:25;;;;;;;7.53;4.20;;;;;;;-141.13;100.00;65498.22;10421010;28;20253;-68
2022/05/08 08:31:30;;;;;;;8.73;4.33;;;;;;;-141.13;100.00;65498.22;10420827;28;20648;-70
2022/05/08 08:36:34;;;;;;;7.73;4.03;;;;;;;-141.13;100.00;65498.22;10420208;28;20232;-69
2022/05/08 08:41:43;;;;;;;9.50;4.53;;;;;;;-141.13;100.00;65498.22;10418878;28;20217;-71
2022/05/08 08:52:12;;;;;;;8.83;5.23;;;;;;;-141.13;100.00;65498.22;10419137;28;20290;-67
2022/05/08 08:57:15;;;;;;;12.53;5.20;;;;;;;-141.13;100.00;65498.22;10419611;28;20217;-68
2022/05/08 09:02:21;;;;;;;8.67;4.53;;;;;;;-141.13;100.00;65498.22;10418474;28;20234;-66
2022/05/08 09:07:40;;;;;;;9.43;4.23;;;;;;;-141.13;100.00;65498.22;10418895;28;20255;-71
2022/05/08 09:12:45;;;;;;;9.13;4.57;;;;;;;-141.13;100.00;65498.22;10417127;28;20562;-72
2022/05/08 09:17:52;;;;;;;8.83;3.87;;;;;;;-141.13;100.00;65498.22;10418939;28;20213;-68
2022/05/08 09:23:14;;;;;;;8.33;5.30;;;;;;;-141.13;100.00;65498.22;10418683;28;20237;-64
2022/05/08 09:28:18;;;;;;;7.20;3.40;;;;;;;-141.13;100.00;65498.22;10418371;28;20247;-66
2022/05/08 09:33:34;;;;;;;8.17;3.80;;;;;;;-141.13;100.00;65498.22;10418574;28;20220;-66
2022/05/08 09:38:43;;;;;;;11.17;3.60;;;;;;;-141.13;100.00;65498.22;10391414;28;20228;-68
2022/05/08 09:43:46;;;;;;;7.73;4.27;;;;;;;-141.13;100.00;65498.22;10377142;28;20218;-67
2022/05/08 09:48:51;;;;;;;9.07;4.63;;;;;;;-141.13;100.00;65498.22;10377344;28;20542;-66
2022/05/08 09:53:57;;;;;;;7.70;3.77;;;;;;;-141.13;100.00;65498.22;10376484;28;20300;-67
2022/05/08 09:59:00;;;;;;;7.37;3.63;;;;;;;-141.13;100.00;65498.22;10376968;28;20222;-67
2022/05/08 10:04:05;;;;;;;5.07;2.83;;;;;;;-141.13;100.00;65498.22;10377021;28;20209;-67
2022/05/08 10:14:33;;;;;;;7.37;3.00;;;;;;;-141.13;100.00;65498.22;10376765;28;20616;-69
2022/05/08 10:20:00;;;;;;;11.03;4.03;;;;;;;-141.13;100.00;65498.22;10376874;28;20566;-69
2022/05/08 10:25:15;;;;;;;5.70;3.10;;;;;;;-141.13;100.00;65498.22;10375836;28;20237;-70
2022/05/08 10:30:24;;;;;;;5.23;2.60;;;;;;;-141.13;100.00;65498.22;10376398;28;20716;-69
2022/05/08 10:35:33;;;;;;;6.73;2.70;;;;;;;-141.13;100.00;65498.22;10376064;28;20228;-69
2022/05/08 10:40:38;;;;;;;8.83;3.40;;;;;;;-141.13;100.00;65498.22;10375766;28;20218;-70
2022/05/08 10:45:43;;;;;;;6.93;3.20;;;;;;;-141.13;100.00;65498.22;10375638;28;20559;-65
2022/05/08 10:50:49;;;;;;;12.40;5.93;;;;;;;-141.13;100.00;65498.22;10375577;28;20297;-67
2022/05/08 10:55:58;;;;;;;7.43;2.83;;;;;;;-141.13;100.00;65498.22;10375865;28;20305;-69
2022/05/08 11:01:04;;;;;;;8.60;4.40;;;;;;;-141.13;100.00;65498.22;10375702;28;20602;-64
2022/05/08 11:06:09;;;;;;;4.70;2.00;;;;;;;-141.13;100.00;65498.22;10382832;28;20299;-65
2022/05/08 11:11:12;;;;;;;9.03;4.60;;;;;;;-141.13;100.00;65498.22;10382769;28;20234;-65
2022/05/08 11:16:36;;;;;;;48.80;28.20;;;;;;;-141.13;100.00;65498.22;10382482;28;20218;-65
2022/05/08 11:21:42;;;;;;;7.33;2.50;;;;;;;-141.13;100.00;65498.22;10382434;28;20549;-66
2022/05/08 11:26:48;;;;;;;5.70;2.10;;;;;;;-141.13;100.00;65498.22;10381905;28;20238;-66
2022/05/08 11:37:19;;;;;;;5.10;2.72;;;;;;;-141.13;100.00;65498.22;10381425;28;20229;-66
2022/05/08 11:42:22;;;;;;;5.72;2.00;;;;;;;-141.13;100.00;65498.22;10381609;28;20558;-64
2022/05/08 11:47:25;;;;;;;;;;;;;;;-141.13;100.00;65498.22;10382165;28;20046;-68
2022/05/08 11:52:30;;;;;;;;;;;;;;;-141.13;100.00;65498.22;10381322;28;19921;-68
2022/05/08 11:57:41;;;;;;;;;;;;;;;-141.13;100.00;65498.22;10384621;28;19925;-65
2022/05/08 12:02:46;;;;;;;;;;;;;;;-141.13;100.00;65498.22;10421081;28;20249;-67
2022/05/08 12:07:52;;;;;;;;;;;;;;;-141.13;100.00;65498.22;10422077;28;19982;-68
2022/05/08 12:13:04;;;;;;;;;;;;;;;-141.13;100.00;65498.22;10421063;28;20010;-65
2022/05/08 12:18:07;;;;;;;;;;;;;;;-141.13;100.00;65498.22;10421396;28;19925;-68
2022/05/08 12:23:16;;;;;;;;;;;;;;;-141.13;100.00;65498.22;10421303;28;20399;-69
2022/05/08 12:28:21;;;;;;;;;;;;;;;-141.13;100.00;65498.22;10420009;28;20257;-68
2022/05/08 12:33:24;;;;;;;;;;;;;;;-141.13;100.00;65498.22;10401548;28;19921;-66
2022/05/08 12:38:29;;;;;;;;;;;;;;;-141.13;100.00;65498.22;10399506;28;19932;-66
2022/05/08 12:43:32;;;;;;;;;;;;;;;-141.13;100.00;65498.22;10399474;28;19931;-71
2022/05/08 12:48:35;;;;;;;;;;;;;;;-141.13;100.00;65498.22;10398300;28;20394;-68
2022/05/08 12:53:40;;;;;;;;;;;;;;;-141.13;100.00;65498.22;10401047;28;20365;-66
2022/05/08 13:04:05;;;;;;;;;;;;;;;-141.13;100.00;65498.22;10397771;28;20414;-66
2022/05/08 13:09:10;;;;;;;;;;;;;;;-141.13;100.00;65498.22;10401095;28;20342;-67
2022/05/08 13:14:13;;;;;;;;;;;;;;;-141.13;100.00;65498.22;10403398;28;19921;-66
2022/05/08 13:19:16;;;;;;;;;;;;;;;-141.13;100.00;65498.22;10397180;28;19921;-69
2022/05/08 13:24:21;;;;;;;;;;;;;;;-141.13;100.00;65498.22;10398183;28;19949;-68
2022/05/08 13:29:24;;;;;;;;;;;;;;;-141.13;100.00;65498.22;10396222;28;19967;-68
2022/05/08 13:34:28;;;;;;;;;;;;;;;-141.13;100.00;65498.22;10397346;28;20155;-68
2022/05/08 13:39:33;;;;;;;;;;;;;;;-141.13;100.00;65498.22;10397815;28;19922;-63
2022/05/08 13:44:36;;;;;;;;;;;;;;;-141.13;100.00;65498.22;10395970;28;19929;-63
2022/05/08 13:49:39;;;;;;;;;;;;;;;-141.13;100.00;65498.22;10414529;28;20262;-66
2022/05/08 13:54:44;;;;;;;;;;;;;;;-141.13;100.00;65498.22;10418362;28;19932;-66
2022/05/08 13:59:47;;;;;;;;;;;;;;;-141.13;100.00;65498.22;10417974;28;19921;-70
2022/05/08 14:04:50;;;;;;;;;;;;;;;-141.13;100.00;65498.22;10417764;28;19928;-68
2022/05/08 14:09:55;;;;;;;;;;;;;;;-141.13;100.00;65498.22;10418125;28;20250;-66
2022/05/08 14:14:58;;;;;;;;;;;;;;;-141.13;100.00;65498.22;10417796;28;19925;-66
2022/05/08 14:20:03;;;;;;;;;;;;;;;-141.13;100.00;65498.22;10417762;28;19921;-67
2022/05/08 14:25:08;;;;;;;;;;;;;;;-141.13;100.00;65498.22;10417186;28;19925;-66
2022/05/08 14:30:12;;;;;;;;;;;;;;;-141.13;100.00;65498.22;10416880;28;19978;-68
2022/05/08 14:40:38;;;;;;;;;;;;;;;-141.13;100.00;65498.22;10423957;28;19986;-65
2022/05/08 14:45:41;;;;;;;;;;;;;;;-141.13;100.00;65498.22;10424706;28;19932;-67
2022/05/08 14:50:44;;;;;;;;;;;;;;;-141.13;100.00;65498.22;10424034;28;20273;-67
2022/05/08 14:55:50;;;;;;;;;;;;;;;-141.13;100.00;65498.22;10423946;28;20032;-66
2022/05/08 15:00:53;;;;;;;;;;;;;;;-141.13;100.00;65498.22;10424129;28;20007;-64
2022/05/08 15:05:56;;;;;;;;;;;;;;;-141.13;100.00;65498.22;10423887;28;19929;-71
2022/05/08 15:11:02;;;;;;;;;;;;;;;-141.13;100.00;65498.22;10423327;28;19948;-68
2022/05/08 15:16:05;;;;;;;3.20;1.27;;;;;;;-141.13;100.00;65498.22;10423298;28;20211;-72
2022/05/08 15:21:08;;;;;;;4.83;1.77;;;;;;;-141.13;100.00;65498.22;10423502;28;20209;-68
2022/05/08 15:26:14;;;;;;;3.80;1.23;;;;;;;-141.13;100.00;65498.22;10415152;28;20312;-69
2022/05/08 15:31:19;;;;;;;6.30;2.40;;;;;;;-141.13;100.00;65498.22;10422396;28;20228;-72
2022/05/08 15:36:22;;;;;;;26.35;15.85;;;;;;;-141.13;100.00;65498.22;10422507;28;20225;-67
2022/05/08 15:41:29;;;;;;;3.53;1.20;;;;;;;-141.13;100.00;65498.22;10422186;28;20244;-66
2022/05/08 15:46:32;;;;;;;9.63;4.47;;;;;;;-141.13;100.00;65498.22;10405002;28;20245;-66
2022/05/08 15:51:37;;;;;;;3.33;1.20;;;;;;;-141.13;100.00;65498.22;10419301;28;20228;-66
2022/05/08 15:56:43;;;;;;;3.17;0.93;;;;;;;-141.13;100.00;65498.22;10421652;28;20249;-66
2022/05/08 16:01:46;;;;;;;3.50;1.13;;;;;;;-141.13;100.00;65498.22;10421703;28;20698;-68
2022/05/08 16:06:49;;;;;;;3.50;1.10;;;;;;;-141.13;100.00;65498.22;10421216;28;20236;-67
2022/05/08 16:11:54;;;;;;;5.07;2.20;;;;;;;-141.13;100.00;65498.22;10421124;28;20224;-68
2022/05/08 16:27:40;;;;;;;5.47;1.90;;;;;;;-141.13;100.00;65498.22;10420512;28;20245;-66
2022/05/08 16:32:44;;;;;;;5.43;1.80;;;;;;;-141.13;100.00;65498.22;10419675;28;20219;-66
2022/05/08 16:37:52;;;;;;;5.03;2.10;;;;;;;-141.13;100.00;65498.22;10420165;28;20613;-64
2022/05/08 16:42:59;;;;;;;9.90;2.20;;;;;;;-141.13;100.00;65498.22;10419932;28;20297;-64
2022/05/08 16:48:02;;;;;;;4.73;1.47;;;;;;;-141.13;100.00;65498.22;10419831;28;20225;-68
2022/05/08 16:53:05;;;;;;;5.00;1.60;;;;;;;-141.13;100.00;65498.22;10419628;28;20218;-66
2022/05/08 16:58:10;;;;;;;5.13;1.73;;;;;;;-141.13;100.00;65498.22;10419821;28;20221;-69
2022/05/08 17:03:18;;;;;;;6.50;1.80;;;;;;;-141.13;100.00;65498.22;10419124;28;20245;-67
2022/05/08 17:08:22;;;;;;;5.30;1.63;;;;;;;-141.13;100.00;65498.22;10419085;28;20262;-68
2022/05/08 17:13:26;;;;;;;5.43;1.90;;;;;;;-141.13;100.00;65498.22;10418815;28;20610;-64
2022/05/08 17:18:29;;;;;;;6.83;1.93;;;;;;;-141.13;100.00;65498.22;10418975;28;20228;-65
2022/05/08 17:23:35;;;;;;;4.00;1.50;;;;;;;-141.13;100.00;65498.22;10418941;28;20193;-64
2022/05/08 17:28:49;;;;;;;30.67;16.20;;;;;;;-141.13;100.00;65498.22;10418247;28;20217;-69
2022/05/08 17:33:52;;;;;;;6.87;3.67;;;;;;;-141.13;100.00;65498.22;10418381;28;20204;-62
2022/05/08 17:38:56;;;;;;;10.40;4.13;;;;;;;-141.13;100.00;65498.22;10418236;28;20340;-65
2022/05/08 17:44:00;;;;;;;8.70;4.18;;;;;;;-141.13;100.00;65498.22;10418726;28;20511;-70
2022/05/08 17:49:04;;;;;;;12.17;5.73;;;;;;;-141.13;100.00;65498.22;10418547;28;20650;-64
2022/05/08 17:54:07;;;;;;;14.67;6.33;;;;;;;-141.13;100.00;65498.22;10417757;28;20195;-66
2022/05/08 17:59:12;;;;;;;7.83;3.53;;;;;;;-141.13;100.00;65498.22;10417877;28;20193;-62
2022/05/08 18:09:42;;;;;;;10.53;3.07;;;;;;;-141.13;100.00;65498.22;10417506;28;20303;-67
2022/05/08 18:14:46;;;;;;;8.20;3.47;;;;;;;-141.13;100.00;65498.22;10424388;28;20250;-70
2022/05/08 18:19:50;;;;;;;6.77;2.57;;;;;;;-141.13;100.00;65498.22;10426347;28;20532;-68
2022/05/08 18:24:53;;;;;;;6.83;2.80;;;;;;;-141.13;100.00;65498.22;10425575;28;20231;-69
2022/05/08 18:29:58;;;;;;;7.63;2.77;;;;;;;-141.13;100.00;65498.22;10424908;28;20558;-67
2022/05/08 18:35:02;;;;;;;5.63;2.67;;;;;;;-141.13;100.00;65498.22;10425121;28;20231;-68
2022/05/08 18:40:11;;;;;;;8.10;2.67;;;;;;;-141.13;100.00;65498.22;10425119;28;20217;-68
2022/05/08 18:45:18;;;;;;;5.80;2.30;;;;;;;-141.13;100.00;65498.22;10425218;28;20416;-64
2022/05/08 18:50:21;;;;;;;51.33;26.17;;;;;;;-141.13;100.00;65498.22;10427004;28;20499;-68
2022/05/08 18:55:25;;;;;;;11.33;3.17;;;;;;;-141.13;100.00;65498.22;10424446;28;20244;-66
2022/05/08 19:00:30;;;;;;;9.33;3.47;;;;;;;-141.13;100.00;65498.22;10424044;28;20274;-70
2022/05/08 19:05:34;;;;;;;8.40;3.40;;;;;;;-141.13;100.00;65498.22;10424074;28;20232;-68
2022/05/08 19:10:37;;;;;;;8.53;3.23;;;;;;;-141.13;100.00;65498.22;10423574;28;20542;-67
2022/05/08 19:15:42;;;;;;;7.47;3.23;;;;;;;-141.13;100.00;65498.22;10423841;28;20685;-68
2022/05/08 19:20:45;;;;;;;8.27;3.80;;;;;;;-141.13;100.00;65498.22;10424215;28;20229;-67
2022/05/08 19:25:49;;;;;;;7.23;3.33;;;;;;;-141.13;100.00;65498.22;10422979;28;20229;-69
2022/05/08 19:41:33;;;;;;;7.13;2.73;;;;;;;-141.13;100.00;65498.22;10422790;28;20225;-68
2022/05/08 19:46:37;;;;;;;13.37;3.47;;;;;;;-141.13;100.00;65498.22;10423163;28;20311;-69
2022/05/08 19:51:41;;;;;;;8.73;2.80;;;;;;;-141.13;100.00;65498.22;10423229;28;20255;-68
2022/05/08 19:56:44;;;;;;;8.20;2.90;;;;;;;-141.13;100.00;65498.22;10422324;28;20225;-71
2022/05/08 20:01:49;;;;;;;7.83;3.00;;;;;;;-141.13;100.00;65498.22;10421687;28;20268;-71
2022/05/08 20:06:57;;;;;;;7.70;3.17;;;;;;;-141.13;100.00;65498.22;10421851;28;20225;-70
2022/05/08 20:12:00;;;;;;;7.10;2.77;;;;;;;-141.13;100.00;65498.22;10421385;28;20257;-70
2022/05/08 20:17:06;;;;;;;7.87;2.50;;;;;;;-141.13;100.00;65498.22;10421186;28;20653;-65
2022/05/08 20:22:11;;;;;;;8.80;3.33;;;;;;;-141.13;100.00;65498.22;10421764;28;20332;-69
2022/05/08 20:27:15;;;;;;;6.87;2.67;;;;;;;-141.13;100.00;65498.22;10420820;28;20320;-67
2022/05/08 20:32:20;;;;;;;9.97;3.00;;;;;;;-141.13;100.00;65498.22;10420621;28;20661;-69
2022/05/08 20:37:23;;;;;;;9.93;2.50;;;;;;;-141.13;100.00;65498.22;10420190;28;20225;-64
2022/05/08 20:42:27;;;;;;;8.87;2.80;;;;;;;-141.13;100.00;65498.22;10420341;28;20613;-66
2022/05/08 20:47:32;;;;;;;44.17;19.57;;;;;;;-141.13;100.00;65498.22;10420747;28;20226;-66
2022/05/08 20:52:35;;;;;;;11.53;5.37;;;;;;;-141.13;100.00;65498.22;10420569;28;20700;-65
2022/05/08 20:57:39;;;;;;;9.00;2.97;;;;;;;-141.13;100.00;65498.22;10419412;28;20213;-65
2022/05/08 21:02:43;;;;;;;8.50;2.60;;;;;;;-141.13;100.00;65498.22;10419169;28;20294;-66
2022/05/08 21:07:55;;;;;;;9.70;3.30;;;;;;;-141.13;100.00;65498.22;10419164;28;20557;-69
2022/05/08 21:12:59;;;;;;;12.93;2.67;;;;;;;-141.13;100.00;65498.22;10419323;28;20244;-66
2022/05/08 21:18:03;;;;;;;6.73;2.80;;;;;;;-141.13;100.00;65498.22;10411643;28;20231;-67
2022/05/08 21:23:08;;;;;;;7.80;2.57;;;;;;;-141.13;100.00;65498.22;10418619;28;20679;-66
2022/05/08 21:28:11;;;;;;;6.00;2.30;;;;;;;-141.13;100.00;65498.22;10418587;28;20237;-65
2022/05/08 21:33:16;;;;;;;9.33;2.60;;;;;;;-141.13;100.00;65498.22;10418536;28;20213;-65
2022/05/08 21:38:19;;;;;;;8.90;2.53;;;;;;;-141.13;100.00;65498.22;10418673;28;20650;-66
2022/05/08 21:43:22;;;;;;;6.90;2.07;;;;;;;-141.13;100.00;65498.22;10418362;28;20359;-64
2022/05/08 21:48:27;;;;;;;6.33;2.07;;;;;;;-141.13;100.00;65498.22;10417377;28;20217;-67
2022/05/08 21:53:31;;;;;;;12.53;4.10;;;;;;;-141.13;100.00;65498.22;10419148;28;20232;-65
2022/05/08 21:58:34;;;;;;;8.07;2.20;;;;;;;-141.13;100.00;65498.22;10417700;28;20229;-68
2022/05/08 22:03:39;;;;;;;7.50;2.77;;;;;;;-141.13;100.00;65498.22;10417682;28;20217;-66
2022/05/08 22:08:42;;;;;;;7.90;2.50;;;;;;;-141.13;100.00;65498.22;10417566;28;20239;-66
2022/05/08 22:13:46;;;;;;;9.87;2.33;;;;;;;-141.13;100.00;65498.22;10417444;28;20201;-68
2022/05/08 22:24:11;;;;;;;6.50;2.63;;;;;;;-141.13;100.00;65498.22;10417835;28;20229;-69
2022/05/08 22:29:15;;;;;;;10.03;2.90;;;;;;;-141.13;100.00;65498.22;10417223;28;20350;-64
2022/05/08 22:34:19;;;;;;;9.37;2.57;;;;;;;-141.13;100.00;65498.22;10417561;28;20200;-64
2022/05/08 22:39:23;;;;;;;8.03;2.30;;;;;;;-141.13;100.00;65498.22;10417199;28;20263;-64
2022/05/08 22:44:26;;;;;;;6.40;2.57;;;;;;;-141.13;100.00;65498.22;10417242;28;20193;-66
2022/05/08 22:49:30;;;;;;;11.60;2.30;;;;;;;-141.13;100.00;65498.22;10416911;28;20228;-66
2022/05/08 22:54:34;;;;;;;9.30;2.63;;;;;;;-141.13;100.00;65498.22;10416775;28;20189;-66
2022/05/08 22:59:37;;;;;;;8.73;2.50;;;;;;;-141.13;100.00;65498.22;10420099;28;20198;-66
2022/05/08 23:04:42;;;;;;;8.23;2.90;;;;;;;-141.13;100.00;65498.22;10423956;28;20190;-66
2022/05/08 23:09:45;;;;;;;7.53;2.73;;;;;;;-141.13;100.00;65498.22;10453399;28;20220;-69
2022/05/08 23:20:13;;;;;;;9.67;2.60;;;;;;;-141.13;100.00;65498.22;10422944;28;20220;-66
2022/05/08 23:25:19;;;;;;;7.43;2.87;;;;;;;-141.13;100.00;65498.22;10422878;28;20248;-67
2022/05/08 23:30:26;;;;;;;6.80;3.07;;;;;;;-141.13;100.00;65498.22;10422982;28;20274;-71
2022/05/08 23:35:29;;;;;;;6.87;3.30;;;;;;;-141.13;100.00;65498.22;10422807;28;20300;-70
2022/05/08 23:40:34;;;;;;;10.00;2.97;;;;;;;-141.13;100.00;65498.22;10422620;28;20227;-69
2022/05/08 23:45:39;;;;;;;6.90;2.90;;;;;;;-141.13;100.00;65498.22;10422188;28;20531;-66
2022/05/08 23:50:42;;;;;;;7.93;2.80;;;;;;;-141.13;100.00;65498.22;10422142;28;20271;-65
2022/05/08 23:55:45;;;;;;;8.67;3.20;;;;;;;-141.13;100.00;65498.22;10422954;28;20222;-63
